sensor_id;sensor_type;location;lat;lon;timestamp;pressure;altitude;pressure_sealevel;temperature;humidity
61697;BME280;47610;52.252;20.922;2023-10-31T00:01:34;99105.21;;;12.31;100.00
61697;BME280;47610;52.252;20.922;2023-10-31T00:06:37;99089.88;;;12.21;100.00
61697;BME280;47610;52.252;20.922;2023-10-31T00:11:42;99085.80;;;12.09;100.00
61697;BME280;47610;52.252;20.922;2023-10-31T00:16:45;99074.98;;;11.96;100.00
61697;BME280;47610;52.252;20.922;2023-10-31T00:21:48;99075.60;;;11.94;100.00
61697;BME280;47610;52.252;20.922;2023-10-31T00:26:51;99062.78;;;11.91;100.00
61697;BME280;47610;52.252;20.922;2023-10-31T00:31:54;99054.30;;;11.90;100.00
61697;BME280;47610;52.252;20.922;2023-10-31T00:36:57;99055.57;;;11.88;100.00
61697;BME280;47610;52.252;20.922;2023-10-31T00:42:00;99046.59;;;11.93;100.00
61697;BME280;47610;52.252;20.922;2023-10-31T00:47:04;99042.99;;;11.96;100.00
61697;BME280;47610;52.252;20.922;2023-10-31T00:52:07;99036.27;;;11.96;100.00
61697;BME280;47610;52.252;20.922;2023-10-31T00:57:10;99018.52;;;11.96;100.00
61697;BME280;47610;52.252;20.922;2023-10-31T01:02:13;99007.11;;;11.93;100.00
61697;BME280;47610;52.252;20.922;2023-10-31T01:07:16;98997.08;;;11.93;100.00
61697;BME280;47610;52.252;20.922;2023-10-31T01:12:20;98987.05;;;11.91;100.00
61697;BME280;47610;52.252;20.922;2023-10-31T01:17:23;98965.80;;;11.88;100.00
61697;BME280;47610;52.252;20.922;2023-10-31T01:22:26;98952.52;;;11.87;100.00
61697;BME280;47610;52.252;20.922;2023-10-31T01:27:29;98943.38;;;11.84;100.00
61697;BME280;47610;52.252;20.922;2023-10-31T01:32:32;98937.29;;;11.85;100.00
61697;BME280;47610;52.252;20.922;2023-10-31T01:37:35;98946.85;;;11.86;100.00
61697;BME280;47610;52.252;20.922;2023-10-31T01:42:38;98948.23;;;11.82;100.00
61697;BME280;47610;52.252;20.922;2023-10-31T01:47:42;98953.27;;;11.77;100.00
61697;BME280;47610;52.252;20.922;2023-10-31T01:52:46;98937.15;;;11.76;100.00
61697;BME280;47610;52.252;20.922;2023-10-31T01:57:49;98901.83;;;11.67;100.00
61697;BME280;47610;52.252;20.922;2023-10-31T02:02:54;98870.30;;;11.67;100.00
61697;BME280;47610;52.252;20.922;2023-10-31T02:07:58;98855.79;;;11.66;100.00
61697;BME280;47610;52.252;20.922;2023-10-31T02:13:11;98844.60;;;11.66;100.00
61697;BME280;47610;52.252;20.922;2023-10-31T02:18:14;98832.95;;;11.68;100.00
61697;BME280;47610;52.252;20.922;2023-10-31T02:23:18;98824.27;;;11.68;100.00
61697;BME280;47610;52.252;20.922;2023-10-31T02:28:21;98811.66;;;11.71;100.00
61697;BME280;47610;52.252;20.922;2023-10-31T02:33:24;98808.21;;;11.69;100.00
61697;BME280;47610;52.252;20.922;2023-10-31T02:38:27;98806.02;;;11.68;100.00
61697;BME280;47610;52.252;20.922;2023-10-31T02:43:30;98802.09;;;11.65;100.00
61697;BME280;47610;52.252;20.922;2023-10-31T02:48:33;98795.86;;;11.65;100.00
61697;BME280;47610;52.252;20.922;2023-10-31T02:53:37;98784.52;;;11.70;100.00
61697;BME280;47610;52.252;20.922;2023-10-31T02:58:40;98779.30;;;11.74;100.00
61697;BME280;47610;52.252;20.922;2023-10-31T03:03:43;98760.05;;;11.80;100.00
61697;BME280;47610;52.252;20.922;2023-10-31T03:08:46;98743.27;;;11.84;100.00
61697;BME280;47610;52.252;20.922;2023-10-31T03:13:49;98733.39;;;11.83;100.00
61697;BME280;47610;52.252;20.922;2023-10-31T03:18:52;98732.13;;;11.86;100.00
61697;BME280;47610;52.252;20.922;2023-10-31T03:23:56;98729.71;;;11.90;100.00
61697;BME280;47610;52.252;20.922;2023-10-31T03:28:59;98727.90;;;11.97;100.00
61697;BME280;47610;52.252;20.922;2023-10-31T03:34:02;98716.73;;;12.03;100.00
61697;BME280;47610;52.252;20.922;2023-10-31T03:39:05;98715.49;;;12.09;100.00
61697;BME280;47610;52.252;20.922;2023-10-31T03:44:08;98702.25;;;12.14;100.00
61697;BME280;47610;52.252;20.922;2023-10-31T03:49:11;98682.11;;;12.18;100.00
61697;BME280;47610;52.252;20.922;2023-10-31T03:54:14;98674.02;;;12.24;100.00
61697;BME280;47610;52.252;20.922;2023-10-31T03:59:18;98654.53;;;12.29;100.00
61697;BME280;47610;52.252;20.922;2023-10-31T04:04:21;98642.54;;;12.35;100.00
61697;BME280;47610;52.252;20.922;2023-10-31T04:09:24;98641.71;;;12.41;100.00
61697;BME280;47610;52.252;20.922;2023-10-31T04:14:27;98630.39;;;12.48;100.00
61697;BME280;47610;52.252;20.922;2023-10-31T04:19:30;98628.84;;;12.54;100.00
61697;BME280;47610;52.252;20.922;2023-10-31T04:24:33;98628.06;;;12.60;100.00
61697;BME280;47610;52.252;20.922;2023-10-31T04:29:36;98599.47;;;12.65;100.00
61697;BME280;47610;52.252;20.922;2023-10-31T04:34:39;98606.13;;;12.70;100.00
61697;BME280;47610;52.252;20.922;2023-10-31T04:39:42;98599.39;;;12.77;100.00
61697;BME280;47610;52.252;20.922;2023-10-31T04:44:45;98581.98;;;12.85;100.00
61697;BME280;47610;52.252;20.922;2023-10-31T04:49:49;98563.53;;;12.92;100.00
61697;BME280;47610;52.252;20.922;2023-10-31T04:54:52;98553.46;;;12.97;100.00
61697;BME280;47610;52.252;20.922;2023-10-31T04:59:55;98540.80;;;13.00;100.00
61697;BME280;47610;52.252;20.922;2023-10-31T05:04:58;98529.36;;;13.04;100.00
61697;BME280;47610;52.252;20.922;2023-10-31T05:10:01;98518.19;;;13.12;100.00
61697;BME280;47610;52.252;20.922;2023-10-31T05:15:07;98498.41;;;13.17;100.00
61697;BME280;47610;52.252;20.922;2023-10-31T05:20:11;98487.02;;;13.23;100.00
61697;BME280;47610;52.252;20.922;2023-10-31T05:25:15;98493.87;;;13.30;100.00
61697;BME280;47610;52.252;20.922;2023-10-31T05:30:18;98494.09;;;13.37;100.00
61697;BME280;47610;52.252;20.922;2023-10-31T05:35:21;98483.45;;;13.44;100.00
61697;BME280;47610;52.252;20.922;2023-10-31T05:40:25;98483.41;;;13.52;100.00
61697;BME280;47610;52.252;20.922;2023-10-31T05:45:28;98481.77;;;13.61;100.00
61697;BME280;47610;52.252;20.922;2023-10-31T05:50:31;98489.90;;;13.68;100.00
61697;BME280;47610;52.252;20.922;2023-10-31T05:55:34;98490.18;;;13.72;100.00
61697;BME280;47610;52.252;20.922;2023-10-31T06:00:41;98478.11;;;13.75;100.00
61697;BME280;47610;52.252;20.922;2023-10-31T06:05:44;98481.52;;;13.75;100.00
61697;BME280;47610;52.252;20.922;2023-10-31T06:10:47;98470.86;;;13.80;100.00
61697;BME280;47610;52.252;20.922;2023-10-31T06:15:50;98480.39;;;13.83;100.00
61697;BME280;47610;52.252;20.922;2023-10-31T06:20:53;98485.40;;;13.87;100.00
61697;BME280;47610;52.252;20.922;2023-10-31T06:25:56;98489.27;;;13.89;100.00
61697;BME280;47610;52.252;20.922;2023-10-31T06:30:59;98488.33;;;13.89;100.00
61697;BME280;47610;52.252;20.922;2023-10-31T06:36:03;98484.77;;;13.87;100.00
61697;BME280;47610;52.252;20.922;2023-10-31T06:41:06;98484.52;;;13.89;100.00
61697;BME280;47610;52.252;20.922;2023-10-31T06:46:10;98474.20;;;13.89;100.00
61697;BME280;47610;52.252;20.922;2023-10-31T06:51:13;98472.27;;;13.91;100.00
61697;BME280;47610;52.252;20.922;2023-10-31T06:56:16;98479.96;;;13.89;100.00
61697;BME280;47610;52.252;20.922;2023-10-31T07:01:19;98482.42;;;13.92;100.00
61697;BME280;47610;52.252;20.922;2023-10-31T07:06:22;98472.39;;;13.92;100.00
61697;BME280;47610;52.252;20.922;2023-10-31T07:11:25;98467.29;;;13.93;100.00
61697;BME280;47610;52.252;20.922;2023-10-31T07:16:29;98474.43;;;13.94;100.00
61697;BME280;47610;52.252;20.922;2023-10-31T07:21:32;98461.69;;;13.98;100.00
61697;BME280;47610;52.252;20.922;2023-10-31T07:26:35;98457.60;;;14.01;100.00
61697;BME280;47610;52.252;20.922;2023-10-31T07:31:38;98441.52;;;14.03;100.00
61697;BME280;47610;52.252;20.922;2023-10-31T07:36:41;98431.14;;;14.07;100.00
61697;BME280;47610;52.252;20.922;2023-10-31T07:41:45;98422.61;;;14.12;100.00
61697;BME280;47610;52.252;20.922;2023-10-31T07:46:48;98421.36;;;14.15;100.00
61697;BME280;47610;52.252;20.922;2023-10-31T07:51:51;98426.94;;;14.20;100.00
61697;BME280;47610;52.252;20.922;2023-10-31T07:56:54;98441.39;;;14.22;100.00
61697;BME280;47610;52.252;20.922;2023-10-31T08:01:57;98432.04;;;14.21;100.00
61697;BME280;47610;52.252;20.922;2023-10-31T08:07:00;98410.71;;;14.21;100.00
61697;BME280;47610;52.252;20.922;2023-10-31T08:12:04;98399.79;;;14.24;100.00
61697;BME280;47610;52.252;20.922;2023-10-31T08:17:07;98402.56;;;14.26;100.00
61697;BME280;47610;52.252;20.922;2023-10-31T08:22:10;98409.23;;;14.32;100.00
61697;BME280;47610;52.252;20.922;2023-10-31T08:27:13;98406.11;;;14.39;100.00
61697;BME280;47610;52.252;20.922;2023-10-31T08:32:16;98401.30;;;14.49;100.00
61697;BME280;47610;52.252;20.922;2023-10-31T08:37:20;98388.48;;;14.59;100.00
61697;BME280;47610;52.252;20.922;2023-10-31T08:42:23;98384.89;;;14.78;100.00
61697;BME280;47610;52.252;20.922;2023-10-31T08:47:26;98383.89;;;14.95;100.00
61697;BME280;47610;52.252;20.922;2023-10-31T08:52:29;98401.17;;;15.11;100.00
61697;BME280;47610;52.252;20.922;2023-10-31T08:57:32;98389.73;;;15.24;100.00
61697;BME280;47610;52.252;20.922;2023-10-31T09:02:35;98390.36;;;15.30;100.00
61697;BME280;47610;52.252;20.922;2023-10-31T09:07:38;98387.60;;;15.39;100.00
61697;BME280;47610;52.252;20.922;2023-10-31T09:12:42;98387.68;;;15.43;100.00
61697;BME280;47610;52.252;20.922;2023-10-31T09:17:45;98386.39;;;15.48;100.00
61697;BME280;47610;52.252;20.922;2023-10-31T09:22:48;98384.11;;;15.49;100.00
61697;BME280;47610;52.252;20.922;2023-10-31T09:27:51;98391.05;;;15.48;100.00
61697;BME280;47610;52.252;20.922;2023-10-31T09:32:54;98388.69;;;15.44;100.00
61697;BME280;47610;52.252;20.922;2023-10-31T09:37:58;98409.00;;;15.49;100.00
61697;BME280;47610;52.252;20.922;2023-10-31T09:43:01;98415.35;;;15.50;100.00
61697;BME280;47610;52.252;20.922;2023-10-31T09:48:05;98418.51;;;15.49;100.00
61697;BME280;47610;52.252;20.922;2023-10-31T09:53:07;98417.86;;;15.48;100.00
61697;BME280;47610;52.252;20.922;2023-10-31T09:58:11;98414.73;;;15.51;100.00
61697;BME280;47610;52.252;20.922;2023-10-31T10:03:14;98421.70;;;15.56;100.00
61697;BME280;47610;52.252;20.922;2023-10-31T10:08:17;98412.85;;;15.64;100.00
61697;BME280;47610;52.252;20.922;2023-10-31T10:13:21;98413.67;;;15.70;100.00
61697;BME280;47610;52.252;20.922;2023-10-31T10:18:27;98415.16;;;15.78;100.00
61697;BME280;47610;52.252;20.922;2023-10-31T10:23:31;98416.41;;;15.87;100.00
61697;BME280;47610;52.252;20.922;2023-10-31T10:28:34;98417.75;;;16.03;100.00
61697;BME280;47610;52.252;20.922;2023-10-31T10:33:40;98418.42;;;16.18;100.00
61697;BME280;47610;52.252;20.922;2023-10-31T10:38:44;98420.83;;;16.29;100.00
61697;BME280;47610;52.252;20.922;2023-10-31T10:43:51;98416.23;;;16.40;100.00
61697;BME280;47610;52.252;20.922;2023-10-31T10:48:59;98420.05;;;16.51;100.00
61697;BME280;47610;52.252;20.922;2023-10-31T10:54:11;98409.67;;;16.56;100.00
61697;BME280;47610;52.252;20.922;2023-10-31T10:59:21;98413.60;;;16.62;100.00
61697;BME280;47610;52.252;20.922;2023-10-31T11:04:28;98414.86;;;16.68;100.00
61697;BME280;47610;52.252;20.922;2023-10-31T11:09:31;98425.90;;;16.78;100.00
61697;BME280;47610;52.252;20.922;2023-10-31T11:14:34;98422.86;;;16.89;100.00
61697;BME280;47610;52.252;20.922;2023-10-31T11:19:38;98435.70;;;16.96;100.00
61697;BME280;47610;52.252;20.922;2023-10-31T11:24:43;98441.45;;;16.97;100.00
61697;BME280;47610;52.252;20.922;2023-10-31T11:29:44;98439.02;;;16.98;100.00
61697;BME280;47610;52.252;20.922;2023-10-31T11:34:48;98447.00;;;16.96;100.00
61697;BME280;47610;52.252;20.922;2023-10-31T11:40:17;98454.27;;;16.94;100.00
61697;BME280;47610;52.252;20.922;2023-10-31T11:45:33;98453.17;;;16.95;100.00
61697;BME280;47610;52.252;20.922;2023-10-31T11:50:37;98444.55;;;16.94;100.00
61697;BME280;47610;52.252;20.922;2023-10-31T11:55:42;98450.80;;;16.95;100.00
61697;BME280;47610;52.252;20.922;2023-10-31T12:00:46;98458.73;;;16.95;100.00
61697;BME280;47610;52.252;20.922;2023-10-31T12:05:52;98475.13;;;16.93;100.00
61697;BME280;47610;52.252;20.922;2023-10-31T12:11:04;98478.58;;;16.91;100.00
61697;BME280;47610;52.252;20.922;2023-10-31T12:16:09;98480.08;;;16.95;100.00
61697;BME280;47610;52.252;20.922;2023-10-31T12:21:13;98479.06;;;16.96;100.00
61697;BME280;47610;52.252;20.922;2023-10-31T12:26:22;98479.79;;;16.89;100.00
61697;BME280;47610;52.252;20.922;2023-10-31T12:31:25;98481.14;;;16.85;100.00
61697;BME280;47610;52.252;20.922;2023-10-31T12:36:29;98488.09;;;16.83;100.00
61697;BME280;47610;52.252;20.922;2023-10-31T12:41:32;98488.55;;;16.83;100.00
61697;BME280;47610;52.252;20.922;2023-10-31T12:46:38;98502.34;;;16.79;100.00
61697;BME280;47610;52.252;20.922;2023-10-31T12:51:56;98515.55;;;16.74;100.00
61697;BME280;47610;52.252;20.922;2023-10-31T12:57:02;98518.43;;;16.68;100.00
61697;BME280;47610;52.252;20.922;2023-10-31T13:02:05;98532.90;;;16.62;100.00
61697;BME280;47610;52.252;20.922;2023-10-31T13:07:09;98548.67;;;16.55;100.00
61697;BME280;47610;52.252;20.922;2023-10-31T13:12:12;98559.62;;;16.51;100.00
61697;BME280;47610;52.252;20.922;2023-10-31T13:17:15;98573.23;;;16.46;100.00
61697;BME280;47610;52.252;20.922;2023-10-31T13:22:18;98563.80;;;16.43;100.00
61697;BME280;47610;52.252;20.922;2023-10-31T13:27:21;98570.09;;;16.42;100.00
61697;BME280;47610;52.252;20.922;2023-10-31T13:32:24;98580.83;;;16.39;100.00
61697;BME280;47610;52.252;20.922;2023-10-31T13:37:27;98580.89;;;16.36;100.00
61697;BME280;47610;52.252;20.922;2023-10-31T13:42:31;98592.90;;;16.34;100.00
61697;BME280;47610;52.252;20.922;2023-10-31T13:47:34;98588.86;;;16.24;100.00
61697;BME280;47610;52.252;20.922;2023-10-31T13:52:37;98600.31;;;16.25;100.00
61697;BME280;47610;52.252;20.922;2023-10-31T13:57:40;98598.98;;;16.23;100.00
61697;BME280;47610;52.252;20.922;2023-10-31T14:02:43;98602.52;;;16.19;100.00
61697;BME280;47610;52.252;20.922;2023-10-31T14:07:46;98607.92;;;16.13;100.00
61697;BME280;47610;52.252;20.922;2023-10-31T14:12:50;98615.49;;;16.09;100.00
61697;BME280;47610;52.252;20.922;2023-10-31T14:17:53;98638.08;;;16.08;100.00
61697;BME280;47610;52.252;20.922;2023-10-31T14:22:56;98636.95;;;16.07;100.00
61697;BME280;47610;52.252;20.922;2023-10-31T14:27:59;98630.27;;;16.07;100.00
61697;BME280;47610;52.252;20.922;2023-10-31T14:33:02;98636.24;;;16.05;100.00
61697;BME280;47610;52.252;20.922;2023-10-31T14:38:05;98625.20;;;15.98;100.00
61697;BME280;47610;52.252;20.922;2023-10-31T14:43:08;98627.41;;;15.95;100.00
61697;BME280;47610;52.252;20.922;2023-10-31T14:48:11;98639.15;;;15.87;100.00
61697;BME280;47610;52.252;20.922;2023-10-31T14:53:15;98633.29;;;15.78;100.00
61697;BME280;47610;52.252;20.922;2023-10-31T14:58:18;98639.48;;;15.66;100.00
61697;BME280;47610;52.252;20.922;2023-10-31T15:03:21;98633.67;;;15.55;100.00
61697;BME280;47610;52.252;20.922;2023-10-31T15:08:24;98632.77;;;15.48;100.00
61697;BME280;47610;52.252;20.922;2023-10-31T15:13:27;98644.86;;;15.39;100.00
61697;BME280;47610;52.252;20.922;2023-10-31T15:18:31;98657.30;;;15.29;100.00
61697;BME280;47610;52.252;20.922;2023-10-31T15:23:34;98658.34;;;15.21;100.00
61697;BME280;47610;52.252;20.922;2023-10-31T15:28:37;98668.55;;;15.13;100.00
61697;BME280;47610;52.252;20.922;2023-10-31T15:33:40;98677.25;;;15.09;100.00
61697;BME280;47610;52.252;20.922;2023-10-31T15:38:43;98682.45;;;15.03;100.00
61697;BME280;47610;52.252;20.922;2023-10-31T15:43:47;98677.33;;;14.96;100.00
61697;BME280;47610;52.252;20.922;2023-10-31T15:48:50;98664.61;;;14.89;100.00
61697;BME280;47610;52.252;20.922;2023-10-31T15:53:53;98673.15;;;14.89;100.00
61697;BME280;47610;52.252;20.922;2023-10-31T15:58:56;98680.14;;;14.90;100.00
61697;BME280;47610;52.252;20.922;2023-10-31T16:03:59;98686.52;;;14.91;100.00
61697;BME280;47610;52.252;20.922;2023-10-31T16:09:02;98684.75;;;14.90;100.00
61697;BME280;47610;52.252;20.922;2023-10-31T16:14:06;98696.00;;;14.91;100.00
61697;BME280;47610;52.252;20.922;2023-10-31T16:19:09;98692.75;;;14.93;100.00
61697;BME280;47610;52.252;20.922;2023-10-31T16:24:12;98706.98;;;14.94;100.00
61697;BME280;47610;52.252;20.922;2023-10-31T16:29:15;98723.41;;;14.96;100.00
61697;BME280;47610;52.252;20.922;2023-10-31T16:34:18;98733.01;;;14.96;100.00
61697;BME280;47610;52.252;20.922;2023-10-31T16:39:21;98736.97;;;14.96;100.00
61697;BME280;47610;52.252;20.922;2023-10-31T16:44:24;98738.69;;;14.91;100.00
61697;BME280;47610;52.252;20.922;2023-10-31T16:49:27;98745.43;;;14.85;100.00
61697;BME280;47610;52.252;20.922;2023-10-31T16:54:31;98750.48;;;14.74;100.00
61697;BME280;47610;52.252;20.922;2023-10-31T16:59:34;98762.09;;;14.74;100.00
61697;BME280;47610;52.252;20.922;2023-10-31T17:04:37;98777.20;;;14.74;100.00
61697;BME280;47610;52.252;20.922;2023-10-31T17:09:40;98775.50;;;14.73;100.00
61697;BME280;47610;52.252;20.922;2023-10-31T17:14:43;98777.38;;;14.70;100.00
61697;BME280;47610;52.252;20.922;2023-10-31T17:19:46;98778.23;;;14.65;100.00
61697;BME280;47610;52.252;20.922;2023-10-31T17:24:49;98783.24;;;14.62;100.00
61697;BME280;47610;52.252;20.922;2023-10-31T17:29:52;98788.06;;;14.59;100.00
61697;BME280;47610;52.252;20.922;2023-10-31T17:34:55;98795.04;;;14.55;100.00
61697;BME280;47610;52.252;20.922;2023-10-31T17:39:59;98795.21;;;14.51;100.00
61697;BME280;47610;52.252;20.922;2023-10-31T17:45:02;98788.16;;;14.49;100.00
61697;BME280;47610;52.252;20.922;2023-10-31T17:50:07;98793.86;;;14.47;100.00
61697;BME280;47610;52.252;20.922;2023-10-31T17:55:11;98798.60;;;14.45;100.00
61697;BME280;47610;52.252;20.922;2023-10-31T18:00:16;98807.06;;;14.41;100.00
61697;BME280;47610;52.252;20.922;2023-10-31T18:05:19;98805.02;;;14.36;100.00
61697;BME280;47610;52.252;20.922;2023-10-31T18:10:22;98807.55;;;14.32;100.00
61697;BME280;47610;52.252;20.922;2023-10-31T18:15:25;98806.54;;;14.26;100.00
61697;BME280;47610;52.252;20.922;2023-10-31T18:20:28;98802.09;;;14.24;100.00
61697;BME280;47610;52.252;20.922;2023-10-31T18:25:32;98808.07;;;14.23;100.00
61697;BME280;47610;52.252;20.922;2023-10-31T18:30:35;98811.00;;;14.21;100.00
61697;BME280;47610;52.252;20.922;2023-10-31T18:35:38;98809.41;;;14.18;100.00
61697;BME280;47610;52.252;20.922;2023-10-31T18:40:41;98821.05;;;14.17;100.00
61697;BME280;47610;52.252;20.922;2023-10-31T18:45:45;98829.73;;;14.14;100.00
61697;BME280;47610;52.252;20.922;2023-10-31T18:50:48;98830.42;;;14.07;100.00
61697;BME280;47610;52.252;20.922;2023-10-31T18:55:51;98829.00;;;14.01;100.00
61697;BME280;47610;52.252;20.922;2023-10-31T19:00:54;98822.44;;;13.99;100.00
61697;BME280;47610;52.252;20.922;2023-10-31T19:05:57;98816.83;;;13.97;100.00
61697;BME280;47610;52.252;20.922;2023-10-31T19:11:00;98827.16;;;13.88;100.00
61697;BME280;47610;52.252;20.922;2023-10-31T19:16:04;98832.20;;;13.84;100.00
61697;BME280;47610;52.252;20.922;2023-10-31T19:21:07;98834.96;;;13.84;100.00
61697;BME280;47610;52.252;20.922;2023-10-31T19:26:10;98833.20;;;13.81;100.00
61697;BME280;47610;52.252;20.922;2023-10-31T19:31:13;98837.55;;;13.79;100.00
61697;BME280;47610;52.252;20.922;2023-10-31T19:36:17;98835.04;;;13.78;100.00
61697;BME280;47610;52.252;20.922;2023-10-31T19:41:20;98841.79;;;13.77;100.00
61697;BME280;47610;52.252;20.922;2023-10-31T19:46:23;98854.84;;;13.75;100.00
61697;BME280;47610;52.252;20.922;2023-10-31T19:51:26;98873.34;;;13.71;100.00
61697;BME280;47610;52.252;20.922;2023-10-31T19:56:29;98879.88;;;13.71;100.00
61697;BME280;47610;52.252;20.922;2023-10-31T20:01:32;98879.83;;;13.69;100.00
61697;BME280;47610;52.252;20.922;2023-10-31T20:06:35;98885.49;;;13.65;100.00
61697;BME280;47610;52.252;20.922;2023-10-31T20:11:38;98881.66;;;13.64;100.00
61697;BME280;47610;52.252;20.922;2023-10-31T20:16:41;98882.66;;;13.61;100.00
61697;BME280;47610;52.252;20.922;2023-10-31T20:21:45;98880.14;;;13.58;100.00
61697;BME280;47610;52.252;20.922;2023-10-31T20:26:51;98882.66;;;13.54;100.00
61697;BME280;47610;52.252;20.922;2023-10-31T20:31:54;98886.81;;;13.51;100.00
61697;BME280;47610;52.252;20.922;2023-10-31T20:36:57;98883.21;;;13.46;100.00
61697;BME280;47610;52.252;20.922;2023-10-31T20:42:00;98887.90;;;13.43;100.00
61697;BME280;47610;52.252;20.922;2023-10-31T20:47:03;98895.91;;;13.40;100.00
61697;BME280;47610;52.252;20.922;2023-10-31T20:52:06;98897.23;;;13.34;100.00
61697;BME280;47610;52.252;20.922;2023-10-31T20:57:10;98896.11;;;13.30;100.00
61697;BME280;47610;52.252;20.922;2023-10-31T21:02:13;98895.63;;;13.30;100.00
61697;BME280;47610;52.252;20.922;2023-10-31T21:07:16;98906.91;;;13.29;100.00
61697;BME280;47610;52.252;20.922;2023-10-31T21:12:19;98913.38;;;13.29;100.00
61697;BME280;47610;52.252;20.922;2023-10-31T21:17:22;98907.95;;;13.28;100.00
61697;BME280;47610;52.252;20.922;2023-10-31T21:22:25;98905.45;;;13.25;100.00
61697;BME280;47610;52.252;20.922;2023-10-31T21:27:29;98905.42;;;13.25;100.00
61697;BME280;47610;52.252;20.922;2023-10-31T21:32:32;98898.02;;;13.23;100.00
61697;BME280;47610;52.252;20.922;2023-10-31T21:37:35;98894.35;;;13.20;100.00
61697;BME280;47610;52.252;20.922;2023-10-31T21:42:38;98893.80;;;13.19;100.00
61697;BME280;47610;52.252;20.922;2023-10-31T21:47:41;98899.96;;;13.15;100.00
61697;BME280;47610;52.252;20.922;2023-10-31T21:52:44;98904.42;;;13.11;100.00
61697;BME280;47610;52.252;20.922;2023-10-31T21:57:47;98909.69;;;13.09;100.00
61697;BME280;47610;52.252;20.922;2023-10-31T22:02:51;98905.61;;;13.07;100.00
61697;BME280;47610;52.252;20.922;2023-10-31T22:07:54;98911.91;;;13.03;100.00
61697;BME280;47610;52.252;20.922;2023-10-31T22:12:57;98935.86;;;12.99;100.00
61697;BME280;47610;52.252;20.922;2023-10-31T22:18:01;98951.20;;;12.98;100.00
61697;BME280;47610;52.252;20.922;2023-10-31T22:23:04;98953.85;;;12.92;100.00
61697;BME280;47610;52.252;20.922;2023-10-31T22:28:07;98941.10;;;12.92;100.00
61697;BME280;47610;52.252;20.922;2023-10-31T22:33:10;98945.58;;;12.99;100.00
61697;BME280;47610;52.252;20.922;2023-10-31T22:38:13;98939.09;;;12.97;100.00
61697;BME280;47610;52.252;20.922;2023-10-31T22:43:16;98936.08;;;12.91;100.00
61697;BME280;47610;52.252;20.922;2023-10-31T22:48:20;98935.02;;;12.84;100.00
61697;BME280;47610;52.252;20.922;2023-10-31T22:53:23;98932.66;;;12.80;100.00
61697;BME280;47610;52.252;20.922;2023-10-31T22:58:26;98945.02;;;12.77;100.00
61697;BME280;47610;52.252;20.922;2023-10-31T23:03:29;98971.48;;;12.76;100.00
61697;BME280;47610;52.252;20.922;2023-10-31T23:08:32;98980.02;;;12.75;100.00
61697;BME280;47610;52.252;20.922;2023-10-31T23:13:35;98986.73;;;12.73;100.00
61697;BME280;47610;52.252;20.922;2023-10-31T23:18:39;98988.73;;;12.73;100.00
61697;BME280;47610;52.252;20.922;2023-10-31T23:23:42;99003.10;;;12.81;100.00
61697;BME280;47610;52.252;20.922;2023-10-31T23:28:45;99007.44;;;12.80;100.00
61697;BME280;47610;52.252;20.922;2023-10-31T23:33:48;99008.85;;;12.76;100.00
61697;BME280;47610;52.252;20.922;2023-10-31T23:38:51;99001.30;;;12.72;100.00
61697;BME280;47610;52.252;20.922;2023-10-31T23:43:54;99005.55;;;12.68;100.00
61697;BME280;47610;52.252;20.922;2023-10-31T23:48:57;99013.61;;;12.61;100.00
61697;BME280;47610;52.252;20.922;2023-10-31T23:54:01;99023.80;;;12.59;100.00
61697;BME280;47610;52.252;20.922;2023-10-31T23:59:04;99021.81;;;12.56;100.00
